Elba, Alabama
Current Conditions -  °F | °C
As of 2:35 PM on Thursday 29 Jan 2015 (Local Time) from KEDN Reporting Station
NA  
Wind Chill: 64°   Ceiling: NA
Heat Index: 64°   Visibility: NA
Dew Point: 46°   Wind: 10mph
Humidity: 52%   Direction: 220°SW
Pressure: 30.2"   Gusts: NA
Location:  31.41°N, 86.07°W
Report Text: KEDN 292035Z AUTO 22009KT 18/08 A3020 RMK AO2 PWINO
Loading
Personal Weather Stations






























Interactive Weather Map New forecast layout! Learn more

10-Day Weather Forecast

Advertisements
Track Severe Weather on mobile